San Antonio North's Hourly Summary for Tuesday, July 10, 2018
Hour Temp
(f)
RH
(%)
Solar Rad.
(MJ/m2)
Rainfall
(in)
Wind
(mph)
7/10/2018 12:00 AM 72 90 0 0 1.12
7/10/2018 1:00 AM 72 92 0 0 1.07
7/10/2018 2:00 AM 73 94 0 0 0.81
7/10/2018 3:00 AM 73 94 0 0 0.01
7/10/2018 4:00 AM 73 95 0 0 0.02
7/10/2018 5:00 AM 73 96 0 0 0
7/10/2018 6:00 AM 72 96 0 0 0
7/10/2018 7:00 AM 72 96 0.01 0 0.06
7/10/2018 8:00 AM 73 96 0.21 0 0.01
7/10/2018 9:00 AM 76 84 0.57 0 0.14
7/10/2018 10:00 AM 78 75 0.81 0 0.49
7/10/2018 11:00 AM 82 63 1.62 0 0.44
7/10/2018 12:00 PM 85 56 2.68 0 0.81
7/10/2018 1:00 PM 86 51 2.65 0 0.62
7/10/2018 2:00 PM 89 44 3.1 0 0.9
7/10/2018 3:00 PM 91 41 3.33 0 1.1
7/10/2018 4:00 PM 91 39 2.51 0 1.11
7/10/2018 5:00 PM 93 38 2.49 0 1.4
7/10/2018 6:00 PM 92 38 1.56 0 0.97
7/10/2018 7:00 PM 92 36 1.32 0 1.15
7/10/2018 8:00 PM 91 38 0.54 0 0.43
7/10/2018 9:00 PM 87 43 0.05 0 0.78
7/10/2018 10:00 PM 84 59 0 0 0.78
7/10/2018 11:00 PM 81 65 0 0 0.84
Data Summary 81 67 23.45 0.00 0.63